Time;durP1;ratioP1;P1;durP2;ratioP2;P2;SDS_P1;SDS_P2;PMS_P1;PMS_P2;Temp;Humidity;BMP_temperature;BMP_pressure;BME280_temperature;BME280_humidity;BME280_pressure;Samples;Min_cycle;Max_cycle;Signal;HPM_P1;HPM_P2
2022/01/07 14:44:55;;;;;;;0.10;0.10;;;5.00;99.90;;;;;;6251569;22;20024;-86
2022/01/07 14:47:23;;;;;;;0.10;0.10;;;5.00;99.90;;;;;;6276687;22;20027;-86
2022/01/07 14:49:51;;;;;;;0.10;0.10;;;;;;;;;;6245648;22;20421;-86
2022/01/07 14:52:21;;;;;;;0.10;0.10;;;4.80;99.90;;;;;;6245805;22;20020;-86
2022/01/07 14:54:52;;;;;;;0.00;0.00;;;4.80;99.90;;;;;;6277500;22;20027;-86
2022/01/07 14:57:19;;;;;;;0.10;0.10;;;4.80;99.90;;;;;;6278336;22;20027;-85
2022/01/07 14:59:47;;;;;;;0.10;0.10;;;5.00;99.90;;;;;;6250643;22;20027;-86
2022/01/07 15:02:15;;;;;;;0.10;0.10;;;4.90;99.90;;;;;;6250596;22;20066;-86
2022/01/07 15:04:43;;;;;;;0.10;0.10;;;4.90;99.90;;;;;;6250314;22;20024;-86
2022/01/07 15:07:11;;;;;;;0.10;0.10;;;5.00;99.90;;;;;;6251535;22;20073;-88
2022/01/07 15:09:38;;;;;;;0.10;0.10;;;;;;;;;;6250991;22;20378;-85
2022/01/07 15:12:07;;;;;;;0.10;0.10;;;5.20;99.90;;;;;;6251985;22;20027;-86
2022/01/07 15:14:34;;;;;;;0.10;0.10;;;4.90;99.90;;;;;;6252584;22;20066;-86
2022/01/07 15:17:02;;;;;;;0.10;0.10;;;4.80;99.90;;;;;;6226046;22;20027;-85
2022/01/07 15:19:32;;;;;;;0.10;0.10;;;5.00;99.90;;;;;;6228178;22;20058;-85
2022/01/07 15:22:00;;;;;;;0.10;0.10;;;4.80;99.90;;;;;;6253100;22;20377;-86
2022/01/07 15:24:30;;;;;;;0.10;0.10;;;4.80;99.90;;;;;;6254461;22;20024;-86
2022/01/07 15:26:59;;;;;;;0.17;0.17;;;4.80;99.90;;;;;;6225905;22;20027;-86
2022/01/07 15:29:26;;;;;;;0.10;0.10;;;4.80;99.90;;;;;;6225138;22;20023;-85
2022/01/07 15:31:54;;;;;;;0.10;0.10;;;4.80;99.90;;;;;;6250940;22;20517;-86
2022/01/07 15:34:21;;;;;;;0.10;0.10;;;4.80;99.90;;;;;;6250895;22;20016;-86
2022/01/07 15:36:51;;;;;;;0.10;0.10;;;4.90;99.90;;;;;;6224290;22;20364;-86
2022/01/07 15:39:20;;;;;;;0.10;0.10;;;;;;;;;;6249190;22;20027;-86
2022/01/07 15:41:48;;;;;;;0.10;0.10;;;4.70;99.90;;;;;;6250062;22;20394;-87
2022/01/07 15:44:15;;;;;;;0.10;0.10;;;;;;;;;;6276989;22;20012;-87
2022/01/07 15:46:42;;;;;;;0.10;0.10;;;4.60;99.90;;;;;;6250801;22;20019;-84
2022/01/07 15:49:09;;;;;;;0.10;0.10;;;;;;;;;;6249708;22;20019;-87
2022/01/07 15:51:36;;;;;;;0.10;0.10;;;4.90;99.90;;;;;;6249940;22;20358;-85
2022/01/07 15:54:05;;;;;;;0.10;0.10;;;4.80;99.90;;;;;;6225183;22;20304;-86
2022/01/07 15:56:34;;;;;;;0.10;0.10;;;5.10;99.90;;;;;;6260749;22;20016;-86
2022/01/07 15:59:02;;;;;;;0.10;0.10;;;4.70;99.90;;;;;;6250144;22;20015;-86
2022/01/07 16:01:30;;;;;;;0.10;0.10;;;4.50;99.90;;;;;;6223988;22;20073;-86
2022/01/07 16:03:57;;;;;;;0.10;0.10;;;4.50;99.90;;;;;;6224133;22;20016;-85
2022/01/07 16:06:23;;;;;;;0.10;0.10;;;4.40;99.90;;;;;;6248868;22;20069;-86
2022/01/07 16:08:51;;;;;;;0.10;0.10;;;;;;;;;;6223324;22;20470;-87
2022/01/07 16:11:22;;;;;;;;;;;4.60;99.90;;;;;;6249155;22;20099;-86
2022/01/07 16:13:49;;;;;;;0.10;0.10;;;4.50;99.90;;;;;;6248699;22;19915;-85
2022/01/07 16:16:16;;;;;;;0.10;0.10;;;4.30;99.90;;;;;;6275546;22;20028;-82
2022/01/07 16:18:43;;;;;;;0.10;0.10;;;4.40;99.90;;;;;;6223015;22;20771;-86
2022/01/07 16:21:29;;;;;;;0.10;0.10;;;4.60;99.90;;;;;;6226930;22;20028;-85
2022/01/07 16:23:56;;;;;;;0.10;0.10;;;4.40;99.90;;;;;;6223301;22;20398;-85
2022/01/07 16:26:25;;;;;;;0.10;0.10;;;4.30;99.90;;;;;;6249133;22;20086;-85
2022/01/07 16:28:52;;;;;;;0.10;0.10;;;4.20;99.90;;;;;;6276534;22;20024;-85
2022/01/07 16:31:19;;;;;;;0.10;0.10;;;;;;;;;;6250100;22;20034;-85
2022/01/07 16:33:48;;;;;;;0.08;0.08;;;4.50;99.90;;;;;;6249267;22;20020;-86
2022/01/07 16:36:15;;;;;;;0.10;0.10;;;;;;;;;;6224336;22;20023;-86
2022/01/07 16:38:45;;;;;;;0.17;0.17;;;4.60;99.90;;;;;;6250725;22;20308;-87
2022/01/07 16:41:15;;;;;;;0.10;0.10;;;;;;;;;;6225088;22;20015;-85
2022/01/07 16:43:43;;;;;;;0.10;0.10;;;4.40;99.90;;;;;;6251115;22;20374;-86
2022/01/07 16:46:16;;;;;;;0.10;0.10;;;4.50;99.90;;;;;;6250898;22;20666;-85
2022/01/07 16:48:43;;;;;;;0.10;0.10;;;4.40;99.90;;;;;;6250128;22;20069;-87
2022/01/07 16:51:11;;;;;;;0.10;0.10;;;;;;;;;;6276880;22;20023;-86
2022/01/07 16:53:38;;;;;;;0.10;0.10;;;4.40;99.90;;;;;;6224810;22;20019;-84
2022/01/07 16:56:05;;;;;;;0.10;0.10;;;4.50;99.90;;;;;;6225494;22;20026;-85
2022/01/07 16:58:36;;;;;;;0.10;0.10;;;4.20;99.90;;;;;;6276221;22;20019;-86
2022/01/07 17:01:05;;;;;;;0.10;0.10;;;4.30;99.90;;;;;;6251741;22;20386;-87
2022/01/07 17:03:33;;;;;;;0.10;0.10;;;;;;;;;;6224711;22;20019;-86
2022/01/07 17:06:00;;;;;;;0.10;0.10;;;;;;;;;;6250952;22;20019;-86
2022/01/07 17:08:32;;;;;;;0.10;0.10;;;4.30;99.90;;;;;;6250215;22;20015;-86
2022/01/07 17:10:59;;;;;;;0.10;0.10;;;3.80;99.90;;;;;;6276098;22;20019;-86
2022/01/07 17:13:26;;;;;;;0.10;0.10;;;4.20;99.90;;;;;;6260697;22;20024;-87
2022/01/07 17:15:56;;;;;;;0.10;0.10;;;;;;;;;;6251319;22;20481;-86
2022/01/07 17:18:24;;;;;;;0.10;0.10;;;4.10;99.90;;;;;;6250029;22;20094;-87
2022/01/07 17:20:51;;;;;;;0.10;0.10;;;4.10;99.90;;;;;;6259573;22;20101;-86
2022/01/07 17:23:21;;;;;;;0.10;0.10;;;4.20;99.90;;;;;;6224427;22;20012;-84
2022/01/07 17:25:48;;;;;;;0.10;0.10;;;4.10;99.90;;;;;;6251651;22;20271;-84
2022/01/07 17:28:15;;;;;;;0.10;0.10;;;4.10;99.90;;;;;;6250688;22;20913;-86
2022/01/07 17:30:42;;;;;;;0.10;0.10;;;4.20;99.90;;;;;;6250411;22;20022;-85
2022/01/07 17:33:09;;;;;;;0.10;0.10;;;;;;;;;;6276985;22;20012;-86
2022/01/07 17:35:37;;;;;;;0.10;0.10;;;4.10;99.90;;;;;;6250428;22;20027;-87
2022/01/07 17:38:04;;;;;;;0.10;0.10;;;4.10;99.90;;;;;;6276972;22;20016;-84
2022/01/07 17:40:31;;;;;;;0.10;0.10;;;4.00;99.90;;;;;;6250068;22;20026;-86
2022/01/07 17:43:09;;;;;;;0.10;0.10;;;4.00;99.90;;;;;;6252961;22;20043;-86
2022/01/07 17:45:35;;;;;;;0.10;0.10;;;3.80;99.90;;;;;;6251240;22;20020;-86
2022/01/07 17:48:03;;;;;;;0.10;0.10;;;3.70;99.90;;;;;;6250998;22;20016;-87
2022/01/07 17:50:31;;;;;;;0.10;0.10;;;3.60;99.90;;;;;;6253077;22;20060;-89
2022/01/07 17:52:59;;;;;;;0.10;0.10;;;3.90;99.90;;;;;;6252145;22;21646;-86
2022/01/07 17:55:28;;;;;;;0.10;0.10;;;3.80;99.90;;;;;;6253503;22;20023;-87
2022/01/07 17:57:55;;;;;;;0.10;0.10;;;4.10;99.90;;;;;;6279244;22;20020;-85
2022/01/07 18:00:23;;;;;;;0.00;0.00;;;3.90;99.90;;;;;;6280056;22;20020;-86
2022/01/07 18:02:52;;;;;;;0.10;0.10;;;3.60;99.90;;;;;;6253491;22;20455;-85
2022/01/07 18:05:22;;;;;;;0.10;0.10;;;3.60;99.90;;;;;;6252407;22;20102;-84
2022/01/07 18:07:49;;;;;;;0.10;0.10;;;3.70;99.90;;;;;;6226849;22;20015;-88
2022/01/07 18:10:17;;;;;;;0.10;0.10;;;3.60;99.90;;;;;;6253492;22;20027;-87
2022/01/07 18:12:44;;;;;;;0.10;0.10;;;3.80;99.90;;;;;;6253497;22;20413;-85
2022/01/07 18:15:13;;;;;;;0.10;0.10;;;;;;;;;;6281828;22;20016;-87
2022/01/07 18:17:41;;;;;;;0.10;0.10;;;4.00;99.90;;;;;;6253612;22;20027;-86
2022/01/07 18:20:10;;;;;;;0.10;0.10;;;4.00;99.90;;;;;;6280846;22;20011;-87
2022/01/07 18:22:38;;;;;;;0.10;0.10;;;4.00;99.90;;;;;;6285782;22;20016;-83
2022/01/07 18:25:10;;;;;;;0.10;0.10;;;;;;;;;;6255896;22;20019;-85
2022/01/07 18:27:58;;;;;;;0.10;0.10;;;4.10;99.90;;;;;;6232305;22;20621;-85
2022/01/07 18:30:25;;;;;;;0.17;0.17;;;;;;;;;;6254556;22;20024;-85
2022/01/07 18:32:52;;;;;;;0.10;0.10;;;4.10;99.90;;;;;;6254345;22;20023;-86
2022/01/07 18:35:33;;;;;;;0.10;0.10;;;4.00;99.90;;;;;;6265862;22;20435;-86
2022/01/07 18:38:00;;;;;;;0.13;0.13;;;4.10;99.90;;;;;;6280733;22;20462;-85
2022/01/07 18:40:27;;;;;;;0.10;0.10;;;4.20;99.90;;;;;;6252280;22;20077;-86
2022/01/07 18:42:53;;;;;;;0.10;0.10;;;4.20;99.90;;;;;;6226873;22;20015;-86
2022/01/07 18:45:22;;;;;;;0.10;0.10;;;4.30;99.90;;;;;;6251625;22;20024;-86
2022/01/07 18:47:49;;;;;;;0.10;0.10;;;4.30;99.90;;;;;;6279318;22;20028;-86
2022/01/07 18:50:16;;;;;;;0.10;0.10;;;4.40;99.90;;;;;;6253623;22;20346;-86
2022/01/07 18:52:43;;;;;;;0.10;0.10;;;4.50;99.90;;;;;;6251569;22;20025;-86
2022/01/07 18:55:10;;;;;;;0.10;0.10;;;4.50;99.90;;;;;;6254380;22;20019;-87
2022/01/07 18:57:39;;;;;;;0.05;0.05;;;4.50;99.90;;;;;;6254103;22;20019;-85
2022/01/07 19:00:11;;;;;;;0.10;0.10;;;4.50;99.90;;;;;;6251908;22;20521;-86
2022/01/07 19:02:42;;;;;;;0.10;0.10;;;4.60;99.90;;;;;;6229791;22;20020;-87
2022/01/07 19:05:10;;;;;;;0.10;0.10;;;4.60;99.90;;;;;;6253323;22;20046;-86
2022/01/07 19:07:37;;;;;;;0.10;0.10;;;4.70;99.90;;;;;;6254357;22;20023;-86
2022/01/07 19:10:05;;;;;;;0.10;0.10;;;4.60;99.90;;;;;;6225648;22;20020;-87
2022/01/07 19:12:32;;;;;;;0.10;0.10;;;4.50;99.90;;;;;;6253142;22;20019;-86
2022/01/07 19:15:00;;;;;;;0.10;0.10;;;;;;;;;;6252455;22;20467;-86
2022/01/07 19:17:27;;;;;;;0.10;0.10;;;;;;;;;;6252254;22;20056;-87
2022/01/07 19:19:55;;;;;;;0.10;0.10;;;4.60;99.90;;;;;;6251663;22;20015;-85
2022/01/07 19:22:22;;;;;;;0.10;0.10;;;;;;;;;;6252184;22;20019;-84
2022/01/07 19:24:49;;;;;;;0.10;0.10;;;4.60;99.90;;;;;;6279280;22;20015;-85
2022/01/07 19:27:16;;;;;;;0.10;0.10;;;4.60;99.90;;;;;;6252146;22;20050;-86
2022/01/07 19:29:45;;;;;;;0.10;0.10;;;4.40;99.90;;;;;;6226581;22;20030;-86
2022/01/07 19:32:12;;;;;;;0.10;0.10;;;4.50;99.90;;;;;;6251434;22;20023;-85
2022/01/07 19:34:39;;;;;;;0.10;0.10;;;4.50;99.90;;;;;;6251677;22;20046;-86
2022/01/07 19:37:08;;;;;;;0.05;0.05;;;4.40;99.90;;;;;;6251325;22;20077;-87
2022/01/07 19:39:35;;;;;;;0.10;0.10;;;4.50;99.90;;;;;;6225292;22;20077;-87
2022/01/07 19:42:03;;;;;;;0.10;0.10;;;4.40;99.90;;;;;;6250057;22;20020;-86
2022/01/07 19:44:30;;;;;;;0.10;0.10;;;4.50;99.90;;;;;;6225112;22;20011;-87
2022/01/07 19:46:57;;;;;;;0.10;0.10;;;;;;;;;;6224857;22;20023;-87
2022/01/07 19:49:24;;;;;;;0.10;0.10;;;4.50;99.90;;;;;;6250339;22;20065;-85
2022/01/07 19:51:51;;;;;;;0.10;0.10;;;;;;;;;;6250931;22;20019;-87
2022/01/07 19:54:19;;;;;;;0.10;0.10;;;4.40;99.90;;;;;;6251278;22;20019;-84
2022/01/07 19:56:58;;;;;;;0.10;0.10;;;4.50;99.90;;;;;;6253621;22;20046;-86
2022/01/07 19:59:25;;;;;;;0.10;0.10;;;;;;;;;;6250333;22;20377;-85
2022/01/07 20:01:52;;;;;;;0.15;0.15;;;4.30;99.90;;;;;;6260052;22;20024;-84
2022/01/07 20:04:19;;;;;;;0.10;0.10;;;4.30;99.90;;;;;;6248552;22;20431;-85
2022/01/07 20:06:46;;;;;;;0.10;0.10;;;4.40;99.90;;;;;;6249340;22;20662;-86
2022/01/07 20:09:13;;;;;;;0.10;0.10;;;4.40;99.90;;;;;;6224750;22;20032;-85
2022/01/07 20:11:41;;;;;;;0.00;0.00;;;4.40;99.90;;;;;;6251015;22;20016;-86
2022/01/07 20:14:08;;;;;;;0.10;0.10;;;;;;;;;;6249948;22;20069;-85
2022/01/07 20:16:35;;;;;;;0.10;0.10;;;4.40;99.90;;;;;;6249194;22;20394;-86
2022/01/07 20:19:02;;;;;;;0.10;0.10;;;4.30;99.90;;;;;;6261942;22;20455;-85
2022/01/07 20:21:30;;;;;;;0.10;0.10;;;;;;;;;;6251238;22;20020;-85
2022/01/07 20:23:58;;;;;;;0.03;0.03;;;4.20;99.90;;;;;;6252948;22;20016;-86
2022/01/07 20:26:25;;;;;;;0.10;0.10;;;4.20;99.90;;;;;;6279300;22;20020;-86
2022/01/07 20:28:53;;;;;;;0.10;0.10;;;4.20;99.90;;;;;;6250907;22;20020;-85
2022/01/07 20:31:20;;;;;;;0.10;0.10;;;5.10;99.90;;;;;;6251825;22;20020;-86
2022/01/07 20:33:47;;;;;;;0.00;0.00;;;4.10;99.90;;;;;;6252717;22;20020;-87
2022/01/07 20:36:15;;;;;;;0.03;0.03;;;4.10;99.90;;;;;;6250988;22;20053;-85
2022/01/07 20:38:42;;;;;;;0.10;0.10;;;;;;;;;;6251876;22;20015;-86
2022/01/07 20:41:09;;;;;;;0.10;0.10;;;4.00;99.90;;;;;;6252086;22;20020;-86
2022/01/07 20:43:38;;;;;;;0.10;0.10;;;4.00;99.90;;;;;;6252254;22;20095;-87
2022/01/07 20:46:07;;;;;;;0.10;0.10;;;4.00;99.90;;;;;;6252583;22;20020;-86
2022/01/07 20:48:34;;;;;;;0.10;0.10;;;3.90;99.90;;;;;;6261694;22;20050;-85
2022/01/07 20:51:01;;;;;;;0.10;0.10;;;3.60;99.90;;;;;;6225500;22;20051;-87
2022/01/07 20:53:30;;;;;;;0.10;0.10;;;3.30;99.90;;;;;;6225890;22;20391;-87
2022/01/07 20:55:57;;;;;;;0.10;0.10;;;;;;;;;;6251682;22;20015;-84
2022/01/07 22:02:08;;;;;;;0.10;0.10;;;2.50;99.90;;;;;;6271059;22;20027;-86
2022/01/07 22:04:35;;;;;;;0.10;0.10;;;2.40;99.90;;;;;;6249194;22;20446;-86
2022/01/07 22:07:04;;;;;;;0.10;0.10;;;2.30;99.90;;;;;;6246866;22;20077;-86
2022/01/07 22:09:31;;;;;;;0.10;0.10;;;;;;;;;;6289228;22;20392;-86
2022/01/07 22:11:58;;;;;;;0.10;0.10;;;2.30;99.90;;;;;;6246220;22;20387;-85
2022/01/07 22:14:26;;;;;;;0.10;0.10;;;2.40;99.90;;;;;;6251403;22;20074;-85
2022/01/07 22:16:54;;;;;;;0.10;0.10;;;2.60;99.90;;;;;;6290552;22;20458;-85
2022/01/07 22:19:22;;;;;;;0.13;0.13;;;2.60;99.90;;;;;;6226714;22;20023;-85
2022/01/07 22:21:49;;;;;;;0.10;0.10;;;;;;;;;;6253308;22;20015;-85
2022/01/07 22:24:19;;;;;;;0.10;0.10;;;2.60;99.90;;;;;;6279600;22;20031;-84
2022/01/07 22:26:46;;;;;;;0.10;0.10;;;2.70;99.90;;;;;;6254202;22;20038;-85
2022/01/07 22:29:13;;;;;;;0.10;0.10;;;2.70;99.90;;;;;;6226214;22;20024;-84
2022/01/07 22:31:40;;;;;;;0.10;0.10;;;2.70;99.90;;;;;;6252304;22;20073;-85
2022/01/07 22:34:07;;;;;;;0.10;0.10;;;;;;;;;;6226635;22;20016;-85
2022/01/07 22:36:36;;;;;;;0.10;0.10;;;2.90;99.90;;;;;;6251699;22;20028;-87
2022/01/07 22:39:03;;;;;;;0.10;0.10;;;;;;;;;;6251474;22;20024;-84
2022/01/07 22:41:30;;;;;;;0.10;0.10;;;3.10;99.90;;;;;;6278690;22;20027;-85
2022/01/07 22:43:57;;;;;;;0.10;0.10;;;;;;;;;;6226901;22;20019;-86
2022/01/07 22:46:24;;;;;;;0.20;0.20;;;;;;;;;;6252961;22;20090;-85
2022/01/07 22:48:51;;;;;;;0.10;0.10;;;3.00;99.90;;;;;;6254222;22;20020;-86
2022/01/07 22:51:18;;;;;;;0.10;0.10;;;2.80;99.90;;;;;;6254380;22;20462;-85
2022/01/07 22:53:46;;;;;;;0.10;0.10;;;2.80;99.90;;;;;;6229533;22;20540;-87
2022/01/07 22:56:14;;;;;;;0.10;0.10;;;2.90;99.90;;;;;;6254571;22;20069;-86
2022/01/07 22:58:41;;;;;;;0.10;0.10;;;3.20;99.90;;;;;;6254661;22;20028;-86
2022/01/07 23:01:08;;;;;;;0.10;0.10;;;3.20;99.90;;;;;;6281473;22;20085;-85
2022/01/07 23:03:35;;;;;;;0.10;0.10;;;;;;;;;;6229324;22;20031;-85
2022/01/07 23:06:03;;;;;;;0.10;0.10;;;3.00;99.90;;;;;;6229149;22;20020;-86
2022/01/07 23:08:30;;;;;;;0.10;0.10;;;3.00;99.90;;;;;;6230073;22;20031;-85
2022/01/07 23:10:58;;;;;;;0.10;0.10;;;3.10;99.90;;;;;;6254584;22;20467;-86
2022/01/07 23:13:26;;;;;;;0.10;0.10;;;3.30;99.90;;;;;;6228819;22;20019;-86
2022/01/07 23:15:53;;;;;;;0.10;0.10;;;3.20;99.90;;;;;;6228946;22;20023;-85
2022/01/07 23:18:27;;;;;;;0.00;0.00;;;3.20;99.90;;;;;;6229165;22;20028;-86
2022/01/07 23:20:56;;;;;;;0.10;0.10;;;3.20;99.90;;;;;;6254030;22;20016;-85
2022/01/07 23:23:23;;;;;;;0.10;0.10;;;3.20;99.90;;;;;;6253935;22;20024;-86
2022/01/07 23:25:51;;;;;;;0.10;0.10;;;;;;;;;;6254016;22;20016;-86
2022/01/07 23:28:19;;;;;;;0.10;0.10;;;3.10;99.90;;;;;;6254789;22;20067;-87
2022/01/07 23:30:46;;;;;;;0.10;0.10;;;3.20;99.90;;;;;;6253630;22;20077;-86
2022/01/07 23:33:14;;;;;;;0.10;0.10;;;;;;;;;;6264022;22;20077;-86
2022/01/07 23:35:45;;;;;;;0.10;0.10;;;;;;;;;;6253456;22;20508;-84
2022/01/07 23:38:12;;;;;;;0.00;0.00;;;3.20;99.90;;;;;;6228955;22;20019;-85
2022/01/07 23:40:43;;;;;;;0.08;0.08;;;3.10;99.90;;;;;;6228670;22;20023;-84
2022/01/07 23:43:11;;;;;;;0.10;0.10;;;;;;;;;;6254198;22;20023;-86
2022/01/07 23:45:39;;;;;;;0.10;0.10;;;3.30;99.90;;;;;;6253324;22;20446;-85
2022/01/07 23:48:07;;;;;;;0.10;0.10;;;;;;;;;;6253732;22;20015;-85
2022/01/07 23:50:34;;;;;;;0.10;0.10;;;3.20;99.90;;;;;;6281364;22;20490;-86
2022/01/07 23:53:01;;;;;;;0.10;0.10;;;;;;;;;;6253603;22;20020;-86
2022/01/07 23:55:28;;;;;;;0.10;0.10;;;;;;;;;;6253965;22;20015;-84
2022/01/07 23:57:56;;;;;;;0.10;0.10;;;3.50;99.90;;;;;;6253460;22;20077;-86
